Airfield :
LOGIN :

Register | Disclaimer

   EN    FR    IT 

 










Legend :    VFR   Marginal VFR   IFR   Intensive IFR   Very Intensive IFR
Visi :
Ceiling :
>= 8 km
>= 3000ft
5 to 8 km
1000 to 3000 ft
1500m to 5 km
500 to 1000 ft
800 to 1500m
200 to 500 ft
< 800m
< 200 ft
Symbols :   Thunderstorms  Fog  Heavy snow  Heavy precipitations  Wind > 20 kt
SIGMETs :     Misc.  Thunderstorms  Icing  Turbulence  Mountain Waves  Volcanic Ashes







- Airport Elevation : 202 ft
- IATA code : LGW
- Download approach charts


EGKK - London Gatwick

CURRENT METAR :
  • 211850Z 19007KT 160V230 CAVOK 19/13 Q1022

EXPIRED METARs :
  • 211820Z 23007KT 200V260 CAVOK 20/12 Q1022
  • 211750Z 23010KT 200V270 CAVOK 21/12 Q1022
  • 211720Z 21010KT 9999 FEW036 21/13 Q1021
  • 211650Z 23009KT 9999 FEW034 21/13 Q1021
  • 211620Z 22009KT 190V250 9999 FEW032 22/13 Q1022

TAF TAF EGKK
Valid from the 21 at 18:00 until the 23 at 00:00 UTC


211701Z 2118/2224 22009KT 9999 FEW035
PROB30
TEMPO 2122/2208 BKN008
BECMG 2222/2224 5000 BR
No reported NOTAMs for that airfield.



MET'MAP, your aeronautical weather chart ! - Copyright ORBIFLY December 2007 - Disclaimer

ORBIFLY MET'MAP TEAM :

Programming & Development : Alexandra Zaïnal
Concept & Development : Baudouin d'Aumeries
Co-Development & Prog : Marc-Olivier Méhu
Technical & hardware support : Manuel Goepfert

Contact : metmap@orbifly.com




SOURCES & CREDITS :

   NOAA